Terminal Aerodrome Forecast
Issued by NWS

Home | Current Version | Previous Version | Graphics & Text | Print | Product List | Glossary On
Versions: 1 2 3 4 5 6 7 8 9 10 11 12 13 14 15 16 17 18 19 20 21 22
430
FTUS43 KGRB 201552 AAA
TAFAUW
TAF AMD
KAUW 201552Z 2016/2112 18007KT P6SM SCT035 BKN050
      TEMPO 2017/2019 2SM TSRA BKN030CB
     FM201900 19011G18KT P6SM SCT040 SCT090
     FM210200 18006KT P6SM SCT200
     FM210600 19006KT P6SM BKN100=

USA.gov is the U.S. government's official web portal to all federal, state and local government web resources and services.